Time;durP1;ratioP1;P1;durP2;ratioP2;P2;SDS_P1;SDS_P2;PMS_P1;PMS_P2;Temp;Humidity;BMP_temperature;BMP_pressure;BME280_temperature;BME280_humidity;BME280_pressure;Samples;Min_cycle;Max_cycle;Signal;HPM_P1;HPM_P2
2022/01/23 00:00:37;;;;;;;15.80;6.30;;;5.20;99.90;;;;;;4867365;29;20044;-86
2022/01/23 00:02:38;;;;;;;14.00;5.72;;;5.20;99.90;;;;;;4889449;29;20048;-86
2022/01/23 00:05:07;;;;;;;7.27;4.13;;;6.30;99.90;;;;;;4896892;29;20055;-85
2022/01/23 00:07:34;;;;;;;6.38;3.58;;;5.20;99.90;;;;;;4866442;29;20510;-86
2022/01/23 00:10:01;;;;;;;10.05;3.50;;;4.70;99.90;;;;;;4914021;29;20055;-86
2022/01/23 00:12:29;;;;;;;;;;;5.20;99.90;;;;;;4881857;29;20290;-86
2022/01/23 00:17:39;;;;;;;6.47;3.15;;;5.90;99.90;;;;;;4895237;29;19923;-86
2022/01/23 00:20:08;;;;;;;4.07;2.83;;;5.10;99.90;;;;;;4865417;29;20092;-85
2022/01/23 00:22:47;;;;;;;3.70;2.80;;;5.10;99.90;;;;;;4896418;29;20041;-85
2022/01/23 00:30:45;;;;;;;8.68;3.67;;;5.10;99.90;;;;;;4893621;29;20112;-86
2022/01/23 00:33:12;;;;;;;5.55;3.03;;;5.10;99.90;;;;;;4911836;29;20052;-85
2022/01/23 00:35:42;;;;;;;4.82;2.90;;;5.10;99.90;;;;;;4897051;29;20135;-86
2022/01/23 00:38:10;;;;;;;4.40;2.85;;;5.10;99.90;;;;;;4880331;29;20120;-86
2022/01/23 00:40:38;;;;;;;8.00;2.63;;;5.50;99.90;;;;;;4866795;29;20120;-85
2022/01/23 00:43:49;;;;;;;4.50;2.78;;;5.60;99.90;;;;;;4880363;29;20452;-86
2022/01/23 00:46:08;;;;;;;4.97;2.50;;;5.10;99.90;;;;;;4909073;29;20050;-85
2022/01/23 00:48:37;;;;;;;6.90;2.55;;;5.10;99.90;;;;;;4880763;29;20048;-86
2022/01/23 00:51:03;;;;;;;4.78;2.90;;;5.10;99.90;;;;;;4898571;29;20412;-85
2022/01/23 00:53:29;;;;;;;3.47;2.50;;;5.10;99.90;;;;;;4880138;29;20048;-86
2022/01/23 00:55:55;;;;;;;4.60;3.33;;;4.60;99.90;;;;;;4863893;29;20052;-85
2022/01/23 00:58:21;;;;;;;6.68;3.03;;;5.10;99.90;;;;;;4864371;29;20104;-85
2022/01/23 01:00:47;;;;;;;6.17;2.70;;;5.10;99.90;;;;;;4880427;29;20052;-86
2022/01/23 01:03:13;;;;;;;8.50;2.50;;;5.10;99.90;;;;;;4863060;29;20108;-85
2022/01/23 01:05:38;;;;;;;5.10;3.53;;;5.10;99.90;;;;;;4864644;29;20124;-86
2022/01/23 01:08:05;;;;;;;7.67;3.53;;;5.10;99.90;;;;;;4880291;29;20056;-85
2022/01/23 01:10:44;;;;;;;4.22;2.85;;;5.00;99.90;;;;;;4895129;29;20040;-86
2022/01/23 01:13:12;;;;;;;6.32;4.30;;;5.10;99.90;;;;;;4881898;29;20048;-85
2022/01/23 01:15:55;;;;;;;7.90;5.88;;;5.10;99.90;;;;;;4880378;29;20154;-85
2022/01/23 01:32:08;;;;;;;6.70;3.35;;;5.10;99.90;;;;;;4895873;29;20056;-85
2022/01/23 01:34:50;;;;;;;6.93;4.05;;;5.10;99.90;;;;;;4894741;29;20447;-86
2022/01/23 01:37:16;;;;;;;7.80;3.22;;;5.10;99.90;;;;;;4881697;29;20056;-85
2022/01/23 01:39:42;;;;;;;5.57;4.00;;;5.10;99.90;;;;;;4879598;29;20369;-85
2022/01/23 01:42:08;;;;;;;3.03;2.73;;;4.00;99.90;;;;;;4895133;29;20522;-85
2022/01/23 01:44:34;;;;;;;6.87;3.40;;;5.10;99.90;;;;;;4879402;29;20044;-86
2022/01/23 01:46:59;;;;;;;5.23;3.53;;;5.10;99.90;;;;;;4879931;29;20075;-85
2022/01/23 01:49:30;;;;;;;6.07;3.40;;;5.20;99.90;;;;;;4879167;29;20127;-86
2022/01/23 01:51:58;;;;;;;9.07;4.78;;;5.10;99.90;;;;;;4895309;29;20052;-85
2022/01/23 01:54:27;;;;;;;8.07;4.53;;;5.10;99.90;;;;;;4894419;29;20060;-85
2022/01/23 01:57:05;;;;;;;7.63;4.22;;;5.10;99.90;;;;;;4895532;29;20049;-86
2022/01/23 02:10:28;;;;;;;5.25;3.40;;;5.10;99.90;;;;;;4894712;29;20056;-85
2022/01/23 02:13:05;;;;;;;6.35;4.07;;;5.10;99.90;;;;;;4895007;29;20412;-85
2022/01/23 02:15:48;;;;;;;4.38;3.53;;;5.10;99.90;;;;;;4864853;29;20116;-85
2022/01/23 02:22:29;;;;;;;5.80;3.63;;;5.10;99.90;;;;;;4879467;29;20195;-85
2022/01/23 02:56:50;;;;;;;7.50;3.42;;;5.10;99.90;;;;;;4898115;29;20071;-85
2022/01/23 02:59:23;;;;;;;3.72;3.13;;;5.10;99.90;;;;;;4883530;29;20518;-86
2022/01/23 03:04:29;;;;;;;8.55;3.70;;;6.10;99.90;;;;;;4898571;29;20068;-85
2022/01/23 03:14:51;;;;;;;8.25;3.30;;;5.10;99.90;;;;;;4897652;29;20052;-85
2022/01/23 03:28:36;;;;;;;6.28;3.15;;;5.10;99.90;;;;;;4894936;29;20088;-86
2022/01/23 03:33:29;;;;;;;9.65;4.00;;;5.10;99.90;;;;;;4885249;29;20548;-86
2022/01/23 03:35:55;;;;;;;5.30;3.83;;;5.10;99.90;;;;;;4897708;29;20052;-86
2022/01/23 03:38:21;;;;;;;11.80;5.00;;;5.10;99.90;;;;;;4882096;29;20099;-86
2022/01/23 03:40:46;;;;;;;4.63;2.93;;;5.10;99.90;;;;;;4896649;29;20168;-85
2022/01/23 03:43:14;;;;;;;7.20;4.13;;;5.20;99.90;;;;;;4881397;29;20056;-85
2022/01/23 03:50:42;;;;;;;6.60;3.47;;;5.00;99.90;;;;;;4897078;29;20083;-85
2022/01/23 03:53:08;;;;;;;6.22;3.50;;;5.00;99.90;;;;;;4881579;29;20056;-85
2022/01/23 03:55:34;;;;;;;5.87;4.00;;;5.10;99.90;;;;;;4897626;29;20063;-86
2022/01/23 03:58:00;;;;;;;4.43;3.13;;;5.00;99.90;;;;;;4898102;29;20048;-85
2022/01/23 04:00:25;;;;;;;9.27;3.87;;;5.10;99.90;;;;;;4872917;29;20132;-86
2022/01/23 04:02:52;;;;;;;6.80;4.00;;;5.10;99.90;;;;;;4880812;29;20079;-86
2022/01/23 04:05:18;;;;;;;7.55;3.55;;;5.10;99.90;;;;;;4896419;29;20060;-85
2022/01/23 04:07:44;;;;;;;5.87;4.30;;;5.70;99.90;;;;;;4879670;29;20044;-85
2022/01/23 04:10:12;;;;;;;9.05;4.25;;;5.00;99.90;;;;;;4899839;29;20511;-85
2022/01/23 04:12:50;;;;;;;8.57;3.60;;;5.00;99.90;;;;;;4880864;29;20484;-85
2022/01/23 04:15:30;;;;;;;5.97;3.80;;;5.80;99.90;;;;;;4866157;29;20063;-86
2022/01/23 04:31:45;;;;;;;7.35;3.55;;;5.00;99.90;;;;;;4896595;29;20048;-85
2022/01/23 04:34:48;;;;;;;4.65;3.53;;;5.10;99.90;;;;;;4898843;29;20067;-85
2022/01/23 04:46:06;;;;;;;12.02;4.00;;;5.00;99.90;;;;;;4864338;29;20531;-85
2022/01/23 04:59:34;;;;;;;7.13;4.45;;;5.00;99.90;;;;;;4895835;29;20085;-85
2022/01/23 04:59:45;;;;;;;7.22;3.90;;;5.00;99.90;;;;;;4882310;29;20503;-85
2022/01/23 05:04:57;;;;;;;6.38;3.80;;;4.40;99.90;;;;;;4882660;29;20077;-85
2022/01/23 05:07:28;;;;;;;5.40;4.13;;;4.90;99.90;;;;;;4895943;29;20041;-85
2022/01/23 05:09:53;;;;;;;5.28;3.42;;;5.00;99.90;;;;;;4895484;29;20045;-85
2022/01/23 05:12:24;;;;;;;4.03;3.30;;;6.20;99.90;;;;;;4864396;29;20048;-85
2022/01/23 05:14:49;;;;;;;8.77;4.20;;;4.90;99.90;;;;;;4897373;29;20051;-86
2022/01/23 05:17:16;;;;;;;4.57;3.50;;;5.00;99.90;;;;;;4879645;29;20044;-85
2022/01/23 05:19:42;;;;;;;6.40;3.60;;;5.00;99.90;;;;;;4895218;29;20496;-86
2022/01/23 05:27:33;;;;;;;8.13;4.45;;;5.00;99.90;;;;;;4895077;29;20055;-85
2022/01/23 05:30:00;;;;;;;6.63;4.13;;;5.60;99.90;;;;;;4894986;29;20052;-85
2022/01/23 05:32:33;;;;;;;8.25;4.13;;;5.00;99.90;;;;;;4880381;29;20059;-85
2022/01/23 05:34:59;;;;;;;11.23;4.63;;;5.00;99.90;;;;;;4894800;29;20505;-85
2022/01/23 05:37:24;;;;;;;4.70;3.60;;;5.00;99.90;;;;;;4880146;29;20079;-85
2022/01/23 05:39:50;;;;;;;5.97;3.70;;;4.20;99.90;;;;;;4863328;29;20060;-86
2022/01/23 05:42:16;;;;;;;7.80;3.73;;;5.00;99.90;;;;;;4880064;29;20044;-85
2022/01/23 05:44:42;;;;;;;6.13;3.67;;;5.00;99.90;;;;;;4882515;29;20044;-85
2022/01/23 05:47:10;;;;;;;3.92;3.50;;;5.30;99.90;;;;;;4879672;29;20395;-86
2022/01/23 05:49:36;;;;;;;6.82;4.22;;;5.00;99.90;;;;;;4879383;29;20052;-85
2022/01/23 05:52:04;;;;;;;6.20;4.10;;;5.00;99.90;;;;;;4863743;29;20052;-85
2022/01/23 05:54:34;;;;;;;10.07;4.22;;;5.00;99.90;;;;;;4894825;29;20554;-85
2022/01/23 05:57:00;;;;;;;8.85;4.30;;;5.00;99.90;;;;;;4894266;29;20044;-85
2022/01/23 05:59:26;;;;;;;7.33;4.70;;;4.90;99.90;;;;;;4894718;29;20075;-85
2022/01/23 06:01:52;;;;;;;5.17;3.93;;;5.00;99.90;;;;;;4894556;29;20492;-85
2022/01/23 06:04:22;;;;;;;9.18;3.70;;;5.10;99.90;;;;;;4863758;29;20044;-85
2022/01/23 06:06:51;;;;;;;7.93;4.07;;;5.00;99.90;;;;;;4896781;29;20052;-85
2022/01/23 06:09:20;;;;;;;7.53;4.07;;;5.00;99.90;;;;;;4877837;29;20056;-85
2022/01/23 06:11:46;;;;;;;5.40;3.65;;;5.80;99.90;;;;;;4894894;29;20040;-85
2022/01/23 06:14:11;;;;;;;6.63;3.70;;;5.00;99.90;;;;;;4878711;29;20048;-85
2022/01/23 06:16:38;;;;;;;6.43;4.03;;;6.30;99.90;;;;;;4896398;29;20530;-86
2022/01/23 06:19:04;;;;;;;6.25;3.83;;;5.10;99.90;;;;;;4878787;29;20123;-85
2022/01/23 06:21:30;;;;;;;7.00;4.17;;;5.00;99.90;;;;;;4879547;29;20041;-85
2022/01/23 06:24:06;;;;;;;6.60;4.15;;;4.90;99.90;;;;;;4878678;29;20305;-85
2022/01/23 06:26:50;;;;;;;6.90;4.38;;;5.00;99.90;;;;;;4894775;29;20044;-85
2022/01/23 06:29:17;;;;;;;6.03;4.32;;;5.00;99.90;;;;;;4910201;29;20049;-85
2022/01/23 06:31:46;;;;;;;;;;;5.00;99.90;;;;;;4895206;29;20053;-85
2022/01/23 06:34:13;;;;;;;4.50;3.35;;;4.90;99.90;;;;;;4894553;29;19924;-85
2022/01/23 06:36:40;;;;;;;4.78;3.08;;;6.10;99.90;;;;;;4894787;29;20048;-85
2022/01/23 06:39:07;;;;;;;5.43;3.92;;;5.60;99.90;;;;;;4878681;29;20131;-85
2022/01/23 06:41:33;;;;;;;5.82;4.03;;;4.90;99.90;;;;;;4863477;29;20063;-85
2022/01/23 06:43:59;;;;;;;4.93;3.47;;;4.90;99.90;;;;;;4909804;29;20044;-85
2022/01/23 06:46:25;;;;;;;6.53;4.47;;;4.90;99.90;;;;;;4881387;29;20052;-85
2022/01/23 06:48:51;;;;;;;5.85;3.83;;;5.00;99.90;;;;;;4878790;29;20057;-85
2022/01/23 06:51:17;;;;;;;4.37;3.43;;;4.90;99.90;;;;;;4879461;29;20460;-85
2022/01/23 06:53:46;;;;;;;8.85;4.15;;;4.90;99.90;;;;;;4894386;29;20057;-85
2022/01/23 06:56:12;;;;;;;5.63;3.80;;;5.00;99.90;;;;;;4896364;29;20656;-85
2022/01/23 06:58:38;;;;;;;7.50;3.90;;;5.00;99.90;;;;;;4864084;29;20107;-85
2022/01/23 07:01:07;;;;;;;6.17;3.77;;;4.90;99.90;;;;;;4878385;29;20048;-85
2022/01/23 07:03:37;;;;;;;8.18;4.25;;;4.90;99.90;;;;;;4878612;29;20321;-85
2022/01/23 07:06:04;;;;;;;9.43;4.53;;;6.00;99.90;;;;;;4893182;29;20045;-85
2022/01/23 07:08:30;;;;;;;;;;;5.00;99.90;;;;;;4897870;29;20120;-85
2022/01/23 07:10:56;;;;;;;6.25;3.83;;;5.50;99.90;;;;;;4897594;29;19923;-85
2022/01/23 07:13:22;;;;;;;5.15;3.78;;;6.10;99.90;;;;;;4899910;29;20348;-85
2022/01/23 07:15:48;;;;;;;4.30;3.17;;;4.90;99.90;;;;;;4882718;29;20060;-85
2022/01/23 07:18:18;;;;;;;7.90;4.43;;;4.90;99.90;;;;;;4897410;29;20056;-85
2022/01/23 07:20:44;;;;;;;4.72;3.45;;;4.90;99.90;;;;;;4895965;29;20052;-85
2022/01/23 07:23:10;;;;;;;5.32;3.72;;;4.90;99.90;;;;;;4881619;29;20048;-85
2022/01/23 07:25:36;;;;;;;5.80;3.95;;;5.00;99.90;;;;;;4882088;29;20123;-85
2022/01/23 07:28:04;;;;;;;6.95;3.92;;;4.90;99.90;;;;;;4865913;29;20049;-85
2022/01/23 07:30:46;;;;;;;6.13;4.15;;;4.90;99.90;;;;;;4882036;29;20059;-85
2022/01/23 07:33:12;;;;;;;6.43;3.58;;;4.90;99.90;;;;;;4881965;29;20123;-85
2022/01/23 07:35:38;;;;;;;5.00;3.73;;;4.90;99.90;;;;;;4882249;29;20567;-85
2022/01/23 07:38:03;;;;;;;6.83;3.53;;;4.90;99.90;;;;;;4866432;29;20090;-85
2022/01/23 07:40:29;;;;;;;4.10;3.43;;;5.50;99.90;;;;;;4867177;29;20128;-85
2022/01/23 07:42:58;;;;;;;4.97;3.80;;;4.90;99.90;;;;;;4897752;29;20085;-85
2022/01/23 07:45:23;;;;;;;6.80;3.33;;;4.90;99.90;;;;;;4897580;29;20477;-85
2022/01/23 07:47:49;;;;;;;6.07;3.93;;;4.90;99.90;;;;;;4879417;29;20052;-85
2022/01/23 07:50:16;;;;;;;5.93;4.17;;;4.90;99.90;;;;;;4897407;29;20041;-89
2022/01/23 07:52:42;;;;;;;5.13;3.80;;;4.90;99.90;;;;;;4913512;29;20048;-88
2022/01/23 07:55:14;;;;;;;5.67;3.50;;;6.20;99.90;;;;;;4881416;29;20484;-87
2022/01/23 07:57:42;;;;;;;6.88;3.40;;;5.00;99.90;;;;;;4897810;29;20041;-88
2022/01/23 08:00:09;;;;;;;7.65;3.50;;;5.00;99.90;;;;;;4881932;29;20055;-87
2022/01/23 08:02:35;;;;;;;6.57;3.35;;;4.90;99.90;;;;;;4868242;29;20052;-86
2022/01/23 08:05:03;;;;;;;5.20;3.10;;;5.00;99.90;;;;;;4880631;29;20411;-87
2022/01/23 08:10:00;;;;;;;6.23;3.73;;;5.00;99.90;;;;;;4899524;29;20062;-91
2022/01/23 08:12:28;;;;;;;5.05;3.22;;;5.00;99.90;;;;;;4896652;29;20543;-85
2022/01/23 08:14:55;;;;;;;5.78;3.53;;;5.00;99.90;;;;;;4881466;29;20049;-87
2022/01/23 08:17:26;;;;;;;6.78;4.25;;;5.00;99.90;;;;;;4880862;29;20427;-88
2022/01/23 08:19:53;;;;;;;9.75;4.40;;;5.00;99.90;;;;;;4879856;29;20057;-89
2022/01/23 08:22:21;;;;;;;5.30;3.35;;;5.00;99.90;;;;;;4898190;29;20044;-94
2022/01/23 08:24:54;;;;;;;7.82;4.80;;;5.10;99.90;;;;;;4878847;29;20053;-95
2022/01/23 08:27:38;;;;;;;;;;;;;;;;;;;;;
2022/01/23 08:30:07;;;;;;;7.13;4.28;;;5.20;99.90;;;;;;4898205;29;20407;-91
2022/01/23 08:32:36;;;;;;;7.25;4.75;;;4.90;99.90;;;;;;4869808;29;20056;-94
2022/01/23 08:35:28;;;;;;;5.32;3.63;;;5.10;99.90;;;;;;4876763;29;20048;-96
2022/01/23 08:37:56;;;;;;;6.50;4.20;;;5.70;99.90;;;;;;4910945;23;20066;-95
2022/01/23 08:40:35;;;;;;;5.05;3.53;;;5.20;99.90;;;;;;4914050;29;20380;-96
2022/01/23 08:43:01;;;;;;;7.85;5.18;;;5.20;99.90;;;;;;4904078;29;20074;-95
2022/01/23 08:45:27;;;;;;;5.35;4.32;;;5.10;99.90;;;;;;4887542;29;20135;-96
2022/01/23 08:47:55;;;;;;;4.32;3.50;;;5.10;99.90;;;;;;4903629;29;20559;-95
2022/01/23 08:50:23;;;;;;;6.43;4.22;;;5.10;99.90;;;;;;4869863;29;20526;-93
2022/01/23 08:53:00;;;;;;;5.25;3.33;;;5.20;99.90;;;;;;4902116;29;20146;-96
2022/01/23 08:55:35;;;;;;;;;;;;;;;;;;;;;
2022/01/23 08:58:14;;;;;;;6.50;4.35;;;5.30;99.90;;;;;;4921997;29;20060;-95
2022/01/23 09:00:52;;;;;;;4.93;3.85;;;4.70;99.90;;;;;;4912526;29;20107;-95
2022/01/23 09:03:24;;;;;;;4.70;3.50;;;4.40;99.90;;;;;;4889624;29;20075;-95
2022/01/23 09:06:04;;;;;;;4.82;3.10;;;5.30;99.90;;;;;;4926048;29;20083;-95
2022/01/23 09:08:34;;;;;;;9.90;3.90;;;6.90;99.90;;;;;;4897621;29;20054;-95
2022/01/23 09:11:24;;;;;;;3.67;3.20;;;5.30;99.90;;;;;;4929784;29;20072;-92
2022/01/23 09:16:35;;;;;;;5.88;4.03;;;6.20;99.90;;;;;;4896604;29;20040;-96
2022/01/23 09:19:01;;;;;;;4.07;3.20;;;4.60;99.90;;;;;;4923542;29;20126;-95
2022/01/23 09:24:41;;;;;;;3.72;3.15;;;4.80;99.90;;;;;;4925709;29;20127;-94
2022/01/23 09:27:19;;;;;;;3.10;2.47;;;5.40;99.90;;;;;;4921300;29;20064;-96
2022/01/23 09:29:49;;;;;;;4.68;3.40;;;5.40;99.90;;;;;;4909649;29;20071;-92
2022/01/23 09:32:16;;;;;;;7.35;3.38;;;5.30;99.90;;;;;;4899921;29;20457;-91
2022/01/23 09:34:43;;;;;;;4.60;3.30;;;5.50;99.90;;;;;;4899206;29;20670;-93
2022/01/23 09:37:12;;;;;;;3.28;2.83;;;6.60;99.90;;;;;;4904670;29;20056;-89
2022/01/23 09:39:39;;;;;;;4.72;3.20;;;5.40;99.90;;;;;;4915857;29;20059;-90
2022/01/23 09:42:20;;;;;;;7.28;3.92;;;5.20;99.90;;;;;;4914559;29;20052;-93
2022/01/23 09:44:57;;;;;;;7.05;4.38;;;6.60;99.90;;;;;;4913782;29;20127;-92
2022/01/23 09:47:23;;;;;;;7.85;5.10;;;5.50;99.90;;;;;;4914203;29;20032;-88
2022/01/23 09:49:54;;;;;;;6.90;3.97;;;5.60;99.90;;;;;;4899282;29;20050;-89
2022/01/23 09:52:20;;;;;;;5.20;3.47;;;6.20;99.90;;;;;;4914944;29;20562;-89
2022/01/23 09:54:56;;;;;;;;;;;6.90;99.90;;;;;;4899302;29;20056;-88
2022/01/23 09:57:29;;;;;;;7.47;3.47;;;5.60;99.90;;;;;;4903971;29;19974;-89
2022/01/23 09:59:56;;;;;;;3.15;2.85;;;5.70;99.90;;;;;;4897159;29;20063;-88
2022/01/23 10:02:25;;;;;;;;;;;5.70;99.90;;;;;;4896160;29;20399;-89
2022/01/23 10:04:52;;;;;;;3.17;2.15;;;5.20;99.90;;;;;;4912943;29;19938;-90
2022/01/23 10:07:18;;;;;;;2.47;2.28;;;5.80;99.90;;;;;;4913370;29;20518;-89
2022/01/23 10:09:51;;;;;;;4.07;2.78;;;5.80;99.90;;;;;;4898629;29;20071;-88
2022/01/23 10:12:17;;;;;;;4.18;3.35;;;5.80;99.90;;;;;;4914922;29;20059;-89
2022/01/23 10:14:43;;;;;;;4.18;2.70;;;5.90;99.90;;;;;;4898563;29;20048;-91
2022/01/23 10:17:09;;;;;;;3.07;2.77;;;6.00;99.90;;;;;;4898296;29;20103;-87
2022/01/23 10:19:35;;;;;;;5.27;2.70;;;5.40;99.90;;;;;;4900803;29;20694;-89
2022/01/23 10:22:03;;;;;;;2.17;1.60;;;6.00;99.90;;;;;;4894615;29;20611;-87
2022/01/23 10:24:29;;;;;;;3.03;2.10;;;6.00;99.90;;;;;;4864290;29;20056;-90
2022/01/23 10:26:59;;;;;;;2.33;1.67;;;6.20;99.90;;;;;;4909975;29;20539;-91
2022/01/23 10:29:29;;;;;;;2.60;2.20;;;6.00;99.90;;;;;;4897913;29;20048;-89
2022/01/23 10:32:07;;;;;;;3.28;2.40;;;6.00;99.90;;;;;;4898257;29;20044;-90
2022/01/23 10:34:43;;;;;;;3.25;2.08;;;6.00;99.90;;;;;;4901331;29;20047;-89
2022/01/23 10:37:12;;;;;;;2.47;1.70;;;6.10;99.90;;;;;;4882644;29;20052;-90
2022/01/23 10:39:45;;;;;;;3.67;2.40;;;5.40;99.90;;;;;;4914792;29;20056;-89
2022/01/23 10:51:39;;;;;;;3.50;2.33;;;6.10;99.90;;;;;;4882431;29;20488;-88
2022/01/23 10:54:23;;;;;;;;;;;;;;;;;;;;;
2022/01/23 10:57:07;;;;;;;2.40;1.63;;;5.60;99.90;;;;;;4921105;29;20409;-91
2022/01/23 10:59:50;;;;;;;3.53;1.63;;;6.20;99.90;;;;;;4922329;29;20047;-92
2022/01/23 11:02:26;;;;;;;3.70;1.80;;;6.20;99.90;;;;;;4903667;29;20040;-90
2022/01/23 11:04:56;;;;;;;0.50;0.50;;;5.30;99.90;;;;;;4906182;29;20059;-91
2022/01/23 11:07:25;;;;;;;0.80;0.47;;;6.30;99.90;;;;;;4920421;29;20402;-91
2022/01/23 11:10:06;;;;;;;0.30;0.30;;;6.20;99.90;;;;;;4905873;29;20055;-88
2022/01/23 11:18:12;;;;;;;3.25;0.75;;;6.10;99.90;;;;;;4905334;29;20083;-87
2022/01/23 11:20:47;;;;;;;0.65;0.65;;;6.20;99.90;;;;;;4919711;29;20473;-87
2022/01/23 11:23:27;;;;;;;2.60;0.68;;;6.10;99.90;;;;;;4930886;29;20040;-88
2022/01/23 11:25:56;;;;;;;0.52;0.47;;;6.10;99.90;;;;;;4904060;29;20398;-88
2022/01/23 11:28:46;;;;;;;0.20;0.20;;;6.20;99.90;;;;;;4904120;29;20098;-87
2022/01/23 11:31:19;;;;;;;0.17;0.17;;;6.20;99.90;;;;;;4920295;29;20443;-88
2022/01/23 11:33:47;;;;;;;0.20;0.20;;;6.10;99.90;;;;;;4919993;29;20164;-89
2022/01/23 11:36:17;;;;;;;0.30;0.30;;;6.10;99.90;;;;;;4904887;29;20051;-88
2022/01/23 11:38:46;;;;;;;0.40;0.30;;;6.30;99.90;;;;;;4906136;29;20056;-89
2022/01/23 11:55:02;;;;;;;2.28;0.50;;;6.30;99.90;;;;;;4934356;29;20050;-87
2022/01/23 11:57:38;;;;;;;0.35;0.25;;;6.30;99.90;;;;;;4902628;29;20059;-85
2022/01/23 12:00:06;;;;;;;0.43;0.40;;;6.30;99.90;;;;;;4902963;29;20086;-85
2022/01/23 12:02:37;;;;;;;0.47;0.47;;;6.30;99.90;;;;;;4903441;29;20039;-86
2022/01/23 12:07:39;;;;;;;0.57;0.47;;;6.30;99.90;;;;;;4920215;29;20059;-86
2022/01/23 12:10:08;;;;;;;1.60;0.60;;;6.30;99.90;;;;;;4905003;29;20164;-86
2022/01/23 12:12:40;;;;;;;0.38;0.38;;;6.30;99.90;;;;;;4904349;29;20043;-86
2022/01/23 12:18:12;;;;;;;1.02;0.55;;;6.30;99.90;;;;;;4920901;29;20481;-86
2022/01/23 12:20:39;;;;;;;0.73;0.73;;;6.30;99.90;;;;;;4904287;29;20083;-86
2022/01/23 12:23:06;;;;;;;1.92;1.00;;;6.30;99.90;;;;;;4920264;29;20101;-86
2022/01/23 12:25:53;;;;;;;0.85;0.52;;;6.30;99.90;;;;;;4919845;29;20139;-86
2022/01/23 12:28:28;;;;;;;3.90;0.93;;;6.30;99.90;;;;;;4920242;29;20067;-86
2022/01/23 12:30:57;;;;;;;0.60;0.38;;;6.40;99.90;;;;;;4904012;29;20064;-86
2022/01/23 12:33:28;;;;;;;0.38;0.38;;;6.90;99.90;;;;;;4920340;29;20047;-86
2022/01/23 12:36:19;;;;;;;0.88;0.73;;;6.40;99.90;;;;;;4919857;29;20058;-86
2022/01/23 12:38:48;;;;;;;3.95;0.60;;;6.40;99.90;;;;;;4904843;29;20067;-85
2022/01/23 12:41:39;;;;;;;0.47;0.47;;;6.40;99.90;;;;;;4904622;29;20045;-86
2022/01/23 12:44:23;;;;;;;0.93;0.40;;;5.80;99.90;;;;;;4920560;29;20118;-86
2022/01/23 12:46:54;;;;;;;0.73;0.65;;;6.40;99.90;;;;;;4903902;29;20051;-86
2022/01/23 12:49:34;;;;;;;1.38;0.85;;;6.40;99.90;;;;;;4904453;29;20047;-86
2022/01/23 12:52:09;;;;;;;1.13;0.70;;;6.40;99.90;;;;;;4920281;29;20059;-86
2022/01/23 12:54:46;;;;;;;0.77;0.50;;;6.40;99.90;;;;;;4903630;29;20059;-86
2022/01/23 12:57:33;;;;;;;0.45;0.40;;;6.40;99.90;;;;;;4919646;29;20043;-86
2022/01/23 13:00:01;;;;;;;0.50;0.50;;;6.40;99.90;;;;;;4903932;29;20243;-86
2022/01/23 13:02:36;;;;;;;0.88;0.65;;;6.40;99.90;;;;;;4888282;29;20043;-86
2022/01/23 13:05:02;;;;;;;1.70;0.88;;;5.90;99.90;;;;;;4903649;29;20062;-86
2022/01/23 13:12:54;;;;;;;0.75;0.70;;;6.50;99.90;;;;;;4919290;29;20078;-86
2022/01/23 13:26:35;;;;;;;0.80;0.80;;;6.40;99.90;;;;;;4919141;29;20051;-85
2022/01/23 13:32:04;;;;;;;1.00;0.88;;;6.40;99.90;;;;;;4919452;29;20056;-86
2022/01/23 13:34:26;;;;;;;1.02;0.90;;;6.40;99.90;;;;;;4918717;29;20059;-86
2022/01/23 13:37:04;;;;;;;1.90;0.83;;;6.40;99.90;;;;;;4902688;29;20403;-85
2022/01/23 13:39:40;;;;;;;1.60;1.08;;;6.40;99.90;;;;;;4918945;29;20066;-86
2022/01/23 13:47:53;;;;;;;1.00;0.90;;;6.40;99.90;;;;;;4934715;29;20047;-85
2022/01/23 13:49:17;;;;;;;1.70;0.80;;;6.40;99.90;;;;;;4918265;29;20058;-85
2022/01/23 13:51:42;;;;;;;1.33;0.90;;;6.40;99.90;;;;;;4918557;29;20406;-86
2022/01/23 14:00:22;;;;;;;1.60;1.00;;;6.40;99.90;;;;;;4918685;29;20130;-86
2022/01/23 14:02:47;;;;;;;1.02;0.95;;;6.30;99.90;;;;;;4918317;29;20051;-86
2022/01/23 14:05:26;;;;;;;0.43;0.43;;;6.30;99.90;;;;;;4903119;29;20402;-86
2022/01/23 14:07:58;;;;;;;0.90;0.70;;;7.10;99.90;;;;;;4902629;29;20052;-86
2022/01/23 14:10:25;;;;;;;0.60;0.60;;;6.30;99.90;;;;;;4918754;29;20054;-86
2022/01/23 14:12:53;;;;;;;0.45;0.45;;;5.70;99.90;;;;;;4902563;29;20061;-86
2022/01/23 14:15:28;;;;;;;0.57;0.57;;;6.30;99.90;;;;;;4918721;29;20047;-85
2022/01/23 14:18:05;;;;;;;0.60;0.60;;;6.30;99.90;;;;;;4917525;29;20402;-85
2022/01/23 14:20:35;;;;;;;1.27;0.90;;;6.20;99.90;;;;;;4918701;29;20048;-86
2022/01/23 14:23:16;;;;;;;1.58;0.50;;;6.20;99.90;;;;;;4918137;29;20384;-86
2022/01/23 14:25:58;;;;;;;0.57;0.50;;;6.80;99.90;;;;;;4902400;29;20498;-86
2022/01/23 14:28:40;;;;;;;0.65;0.47;;;6.20;99.90;;;;;;4918764;29;20047;-85
2022/01/23 14:31:15;;;;;;;0.30;0.30;;;6.20;99.90;;;;;;4917991;29;20125;-85
2022/01/23 14:33:42;;;;;;;0.60;0.60;;;6.20;99.90;;;;;;4918682;29;20055;-86
2022/01/23 14:36:24;;;;;;;0.80;0.43;;;6.20;99.90;;;;;;4902198;29;20063;-85
2022/01/23 14:39:07;;;;;;;1.35;0.80;;;6.20;99.90;;;;;;4901344;29;20394;-86
2022/01/23 14:41:44;;;;;;;2.10;0.68;;;6.20;99.90;;;;;;4918598;29;20047;-85
2022/01/23 14:44:20;;;;;;;0.77;0.70;;;6.20;99.90;;;;;;4918003;29;20043;-86
2022/01/23 14:46:53;;;;;;;0.40;0.40;;;6.20;99.90;;;;;;4918514;29;20438;-85
2022/01/23 14:49:27;;;;;;;0.57;0.55;;;6.10;99.90;;;;;;4902658;29;20467;-85
2022/01/23 14:51:55;;;;;;;0.75;0.60;;;6.30;99.90;;;;;;4902450;29;20043;-85
2022/01/23 14:54:26;;;;;;;1.98;0.88;;;6.20;99.90;;;;;;4919255;29;20051;-85
2022/01/23 14:56:52;;;;;;;0.50;0.50;;;6.10;99.90;;;;;;4902251;29;20455;-85
2022/01/23 14:59:18;;;;;;;0.88;0.77;;;6.10;99.90;;;;;;4902655;29;20048;-85
2022/01/23 15:01:46;;;;;;;1.03;0.93;;;6.10;99.90;;;;;;4887013;29;20055;-85
2022/01/23 15:04:12;;;;;;;0.80;0.80;;;6.10;99.90;;;;;;4917531;29;20393;-85
2022/01/23 15:06:46;;;;;;;1.02;0.73;;;6.10;99.90;;;;;;4918320;29;20226;-85
2022/01/23 15:09:14;;;;;;;1.27;0.70;;;6.10;99.90;;;;;;4902262;29;20161;-85
2022/01/23 15:11:40;;;;;;;2.85;1.15;;;6.10;99.90;;;;;;4918203;29;20051;-85
2022/01/23 15:14:08;;;;;;;1.23;1.00;;;6.30;99.90;;;;;;4886670;29;20384;-85
2022/01/23 15:16:34;;;;;;;1.02;0.90;;;6.10;99.90;;;;;;4918205;29;20098;-85
2022/01/23 15:19:00;;;;;;;2.60;1.00;;;6.10;99.90;;;;;;4901798;29;20402;-85
2022/01/23 15:21:29;;;;;;;1.17;1.05;;;6.00;99.90;;;;;;4902310;29;20095;-85
2022/01/23 15:23:56;;;;;;;0.80;0.80;;;6.10;99.90;;;;;;4917404;29;20052;-86
2022/01/23 15:26:45;;;;;;;1.13;0.80;;;6.00;99.90;;;;;;4902279;29;20051;-85
2022/01/23 15:29:12;;;;;;;3.60;1.15;;;6.00;99.90;;;;;;4897588;29;20058;-85
2022/01/23 15:31:40;;;;;;;1.27;0.73;;;6.00;99.90;;;;;;4905681;29;20184;-85
2022/01/23 15:34:06;;;;;;;1.40;1.00;;;6.00;99.90;;;;;;4905039;29;20052;-85
2022/01/23 15:36:32;;;;;;;2.78;0.73;;;6.00;99.90;;;;;;4921166;29;20043;-85
2022/01/23 15:38:58;;;;;;;2.90;1.27;;;5.90;99.90;;;;;;4920420;29;20056;-85
2022/01/23 15:41:24;;;;;;;0.90;0.90;;;6.00;99.90;;;;;;4905673;29;20150;-85
2022/01/23 15:43:50;;;;;;;0.97;0.87;;;5.80;99.90;;;;;;4920950;29;20134;-86
2022/01/23 15:46:16;;;;;;;1.13;1.00;;;5.90;99.90;;;;;;4920770;29;20051;-85
2022/01/23 15:48:42;;;;;;;1.00;0.90;;;5.90;99.90;;;;;;4905076;29;20073;-85
2022/01/23 15:51:09;;;;;;;;;;;5.90;99.90;;;;;;4905380;29;20055;-85
2022/01/23 15:53:35;;;;;;;0.85;0.85;;;5.90;99.90;;;;;;4905106;29;20389;-85
2022/01/23 15:56:01;;;;;;;1.20;1.03;;;5.90;99.90;;;;;;4904788;29;20064;-85
2022/01/23 15:58:29;;;;;;;4.27;0.97;;;6.30;99.90;;;;;;4920403;29;20079;-85
2022/01/23 16:00:59;;;;;;;0.63;0.63;;;5.90;99.90;;;;;;4920946;29;20047;-85
2022/01/23 16:03:26;;;;;;;3.22;1.20;;;5.80;99.90;;;;;;4904600;29;20451;-85
2022/01/23 16:05:56;;;;;;;2.78;1.17;;;5.90;99.90;;;;;;4904641;29;20043;-85
2022/01/23 16:08:22;;;;;;;2.72;0.82;;;5.90;99.90;;;;;;4889388;29;20508;-85
2022/01/23 16:10:48;;;;;;;1.23;1.13;;;5.80;99.90;;;;;;4905075;29;20134;-85
2022/01/23 16:13:14;;;;;;;1.07;0.87;;;5.80;99.90;;;;;;4920290;29;20102;-85
2022/01/23 16:15:43;;;;;;;0.90;0.77;;;6.60;99.90;;;;;;4920939;29;20054;-85
2022/01/23 16:18:09;;;;;;;0.70;0.70;;;5.80;99.90;;;;;;4904121;29;20222;-85
2022/01/23 16:20:36;;;;;;;2.53;0.60;;;5.90;99.90;;;;;;4904736;29;20637;-85
2022/01/23 16:23:02;;;;;;;1.23;0.80;;;6.70;99.90;;;;;;4903593;29;20487;-85
2022/01/23 16:25:28;;;;;;;1.42;0.90;;;5.80;99.90;;;;;;4894751;29;20506;-84
2022/01/23 16:27:56;;;;;;;0.93;0.77;;;6.10;99.90;;;;;;4887805;29;20044;-83
2022/01/23 16:30:23;;;;;;;2.15;1.33;;;5.80;99.90;;;;;;4919375;29;20042;-85
2022/01/23 16:32:49;;;;;;;;;;;5.70;99.90;;;;;;4904283;29;20043;-84
2022/01/23 16:35:19;;;;;;;2.65;1.05;;;5.70;99.90;;;;;;4903019;29;19919;-87
2022/01/23 16:37:46;;;;;;;3.05;1.10;;;5.70;99.90;;;;;;4905186;29;20043;-83
2022/01/23 16:40:12;;;;;;;1.10;1.00;;;6.30;99.90;;;;;;4917615;29;20052;-83
2022/01/23 16:42:38;;;;;;;1.80;1.20;;;5.70;99.90;;;;;;4888643;29;20098;-83
2022/01/23 16:45:05;;;;;;;1.63;0.97;;;5.70;99.90;;;;;;4918635;29;20070;-83
2022/01/23 16:47:31;;;;;;;0.90;0.90;;;5.70;99.90;;;;;;4919370;29;20075;-83